Aeroporto :
LOGIN :

Iscrizione | Disclaimer

   EN    FR    IT 

 










Sommario :    VFR   VFR Marginale   IFR   IFR Intensivo   IFR Molto Intensivo
Visibilità : 
Base nubi : 
>= 8 km
>= 3000ft
5 / 8 km
1000 / 3000 ft
1500m / 5 km
500 / 1000 ft
800 / 1500m
200 / 500 ft
< 800m
< 200 ft
Simboli :   Temporali  Nebbia  Neve Forte  Precipitazioni Forti  Vento > 20 kt
SIGMETs :   Varie  Temporali  Ghiacco  Turbolenza  Onda orograficha  Ceneri Vulcaniche






- Altitudine del aeroporto : 2776 ft
- Codice IATA : VLL


LEVD - Valladolid

ULTIMO METAR :
  • 071330Z AUTO 18002KT 9999 FEW032 18/10 Q1022

METARs OBSOLETI :
  • 071300Z AUTO 18004KT 100V230 9999 SCT030 17/10 Q1022
  • 071230Z AUTO 21004KT 110V280 9999 SCT028 SCT038 BKN046 17/09 Q1023
  • 071200Z AUTO 17003KT 9999 BKN025 16/11 Q1023
  • 071130Z AUTO 17004KT 110V240 CAVOK 15/10 Q1023
  • 071100Z AUTO VRB04KT 9999 SCT022 BKN028 16/10 Q1023

TAF TAF LEVD
Valido dal 07 a 12 ore il 08 a 12 ore UTC


071100Z 0712/0812 VRB05KT 9999 FEW013 BKN030 TX17/0715Z TN05/0806Z
TEMPO 0712/0716 22008KT
PROB40
TEMPO 0712/0719 3000 SHRA SCT030TCU
TEMPO 0722/0810 3000 BR BKN005
PROB40
TEMPO 0802/0809 0400 FG VV001



MetMap, La meteo Aeronautica in un colpo d'occhio ! - Copyright ORBIFLY Dicembre 2007 - Disclaimer

ORBIFLY MET'MAP TEAM :

Programmazione e sviluppo : Alexandra Zaïnal
Concezione : Baudouin d'Aumeries
Aiuto per la programmazione : Marc-Olivier Méhu
Supporto tecnico e logistico : Manuel Goepfert
Aiuto per la traduzione : Arnaldo La Scala

Contatto : metmap@orbifly.com




FONTI E CREDITI :

   NOAA